Time;durP1;ratioP1;P1;durP2;ratioP2;P2;SDS_P1;SDS_P2;PMS_P1;PMS_P2;Temp;Humidity;BMP_temperature;BMP_pressure;BME280_temperature;BME280_humidity;BME280_pressure;Samples;Min_cycle;Max_cycle;Signal;HPM_P1;HPM_P2
2023/01/24 00:00:46;;;;;;;28.70;17.27;;;;;;;1.29;94.28;103746.28;4937386;29;20059;-84
2023/01/24 00:03:12;;;;;;;27.33;16.55;;;;;;;1.24;94.58;103752.06;4937528;29;20032;-84
2023/01/24 00:05:48;;;;;;;27.92;17.23;;;;;;;1.32;93.92;103755.66;4936376;29;20083;-83
2023/01/24 00:08:15;;;;;;;26.98;16.65;;;;;;;1.73;94.08;103821.09;4936432;29;20035;-84
2023/01/24 00:14:35;;;;;;;27.45;16.52;;;;;;;0.27;94.14;103593.81;4937100;29;20102;-84
2023/01/24 00:19:42;;;;;;;29.40;17.73;;;;;;;1.79;94.23;103838.22;5382932;23;20055;-83
2023/01/24 00:28:31;;;;;;;26.65;16.27;;;;;;;1.81;94.58;103835.69;5200311;23;20056;-84
2023/01/24 00:30:57;;;;;;;27.85;17.02;;;;;;;1.80;94.50;103836.53;4937146;29;20079;-84
2023/01/24 00:33:22;;;;;;;26.33;16.98;;;;;;;1.79;94.84;103828.03;4936948;29;20032;-83
2023/01/24 00:35:50;;;;;;;28.67;17.00;;;;;;;1.77;94.07;103822.03;4935621;29;20143;-83
2023/01/24 00:38:15;;;;;;;29.98;18.20;;;;;;;1.73;94.33;103808.34;4936848;29;20032;-84
2023/01/24 00:40:41;;;;;;;28.33;17.25;;;;;;;1.78;94.62;103812.72;4937097;29;20103;-83
2023/01/24 00:43:06;;;;;;;29.92;18.42;;;;;;;1.50;94.71;103765.41;4936963;29;20031;-84
2023/01/24 00:45:35;;;;;;;31.27;18.40;;;;;;;1.62;94.45;103786.03;4935477;29;20118;-84
2023/01/24 00:48:00;;;;;;;30.30;17.42;;;;;;;1.56;94.76;103786.75;4936675;29;20127;-84
2023/01/24 00:50:26;;;;;;;27.20;16.63;;;;;;;1.58;95.25;103791.91;4937143;29;20111;-84
2023/01/24 00:52:51;;;;;;;29.02;17.60;;;;;;;1.28;95.13;103736.94;4936801;29;20036;-84
2023/01/24 00:57:52;;;;;;;29.40;18.17;;;;;;;1.16;94.92;103718.81;4930549;26;20419;-83
2023/01/24 01:00:17;;;;;;;27.98;17.63;;;;;;;0.80;94.83;103663.75;4936611;29;20032;-84
2023/01/24 01:02:52;;;;;;;27.77;16.70;;;;;;;0.88;94.46;103666.44;4936445;29;20027;-84
2023/01/24 01:05:17;;;;;;;27.25;16.45;;;;;;;0.40;94.11;103587.34;4935832;29;20406;-84
2023/01/24 01:07:52;;;;;;;27.60;16.60;;;;;;;1.33;94.49;103744.66;4935155;29;20024;-84
2023/01/24 01:10:21;;;;;;;29.08;17.20;;;;;;;1.16;94.57;103731.53;4936537;29;20071;-84
2023/01/24 01:12:47;;;;;;;26.52;16.17;;;;;;;1.40;94.20;103765.19;4936593;29;20039;-84
2023/01/24 01:15:15;;;;;;;26.33;16.63;;;;;;;0.85;94.97;103663.81;4936105;29;20036;-84
2023/01/24 01:17:41;;;;;;;27.50;17.70;;;;;;;0.68;94.61;103642.22;4935138;29;20472;-84
2023/01/24 01:20:15;;;;;;;26.75;16.05;;;;;;;1.13;94.45;103718.75;4936407;29;20028;-84
2023/01/24 01:22:51;;;;;;;26.70;15.15;;;;;;;0.19;94.33;103552.09;4936257;29;20028;-84
2023/01/24 01:25:16;;;;;;;24.67;15.13;;;;;;;1.64;94.57;103795.41;4934831;29;20030;-84
2023/01/24 01:27:41;;;;;;;26.77;16.27;;;;;;;1.10;94.34;103711.06;4936318;29;20027;-84
2023/01/24 01:30:13;;;;;;;23.65;14.93;;;;;;;0.60;94.28;103636.97;4935861;29;20031;-84
2023/01/24 01:32:48;;;;;;;;;;;;;;;1.64;94.88;103807.28;4936304;29;20035;-82
2023/01/24 01:35:16;;;;;;;26.40;14.93;;;;;;;1.61;94.92;103804.69;4934557;29;19914;-81
2023/01/24 01:37:43;;;;;;;27.08;15.68;;;;;;;1.46;94.98;103789.06;4936212;29;20036;-84
2023/01/24 01:40:09;;;;;;;25.85;15.75;;;;;;;1.08;95.09;103723.75;4935958;29;20063;-82
2023/01/24 01:48:22;;;;;;;27.25;16.10;;;;;;;0.57;94.84;103634.34;5279992;23;20047;-84
2023/01/24 01:57:36;;;;;;;24.55;14.88;;;;;;;0.28;95.39;103570.97;4935065;29;20043;-84
2023/01/24 02:00:08;;;;;;;24.88;14.68;;;;;;;0.37;95.40;103595.75;4935703;29;20042;-85
2023/01/24 02:02:35;;;;;;;28.20;15.68;;;;;;;1.32;95.33;103756.53;4935199;29;20096;-82
2023/01/24 02:05:04;;;;;;;28.00;17.48;;;;;;;0.26;94.68;103576.84;4935922;29;20027;-85
2023/01/24 02:08:01;;;;;;;26.75;16.80;;;;;;;1.61;95.43;103797.91;4935687;29;20039;-84
2023/01/24 02:13:31;;;;;;;29.67;17.15;;;;;;;0.94;95.04;103686.94;4935933;29;20043;-84
2023/01/24 02:16:09;;;;;;;27.08;16.58;;;;;;;0.89;95.74;103674.94;4935449;29;20030;-86
2023/01/24 02:18:37;;;;;;;28.27;17.65;;;;;;;0.58;95.51;103630.97;4902813;29;20070;-84
2023/01/24 02:21:06;;;;;;;29.60;18.15;;;;;;;0.69;95.42;103651.56;4935336;29;20036;-82
2023/01/24 02:23:56;;;;;;;31.95;18.67;;;;;;;1.56;95.60;103794.38;4935599;29;20095;-82
2023/01/24 02:26:24;;;;;;;30.17;19.17;;;;;;;1.56;95.40;103790.97;4935456;29;20035;-85
2023/01/24 02:29:09;;;;;;;30.73;19.05;;;;;;;1.28;95.77;103743.66;4935437;29;20036;-83
2023/01/24 02:32:01;;;;;;;30.30;17.70;;;;;;;1.55;96.10;103787.56;4935274;29;20123;-83
2023/01/24 02:34:28;;;;;;;29.55;17.92;;;;;;;1.55;96.13;103795.22;4935503;29;20031;-83
2023/01/24 02:36:59;;;;;;;28.98;17.95;;;;;;;1.32;96.04;103756.53;4935602;29;20031;-83
2023/01/24 02:39:40;;;;;;;30.65;19.25;;;;;;;1.18;95.71;103737.53;4918402;29;20028;-84
2023/01/24 02:42:10;;;;;;;30.83;19.48;;;;;;;1.46;96.12;103783.97;4935238;29;20066;-84
2023/01/24 02:44:44;;;;;;;31.23;18.63;;;;;;;1.48;96.21;103793.38;4935272;29;20032;-84
2023/01/24 02:47:10;;;;;;;31.45;19.38;;;;;;;1.53;96.38;103801.09;4934945;29;20489;-83
2023/01/24 02:49:35;;;;;;;32.08;19.13;;;;;;;1.34;96.21;103767.59;4933776;29;20046;-83
2023/01/24 02:54:44;;;;;;;31.58;19.08;;;;;;;1.26;96.32;103753.81;4935153;29;20043;-83
2023/01/24 02:59:56;;;;;;;31.23;18.67;;;;;;;1.11;96.89;103728.03;4935274;29;20082;-83
2023/01/24 03:02:21;;;;;;;27.25;17.42;;;;;;;1.31;96.84;103765.00;4934896;29;20066;-83
2023/01/24 03:04:46;;;;;;;29.15;18.38;;;;;;;1.13;97.00;103734.03;4934929;29;20115;-83
2023/01/24 03:07:12;;;;;;;31.35;18.90;;;;;;;1.11;96.97;103728.91;4934890;29;20028;-83
2023/01/24 03:09:45;;;;;;;37.85;20.27;;;;;;;1.38;96.67;103769.41;4934671;29;20024;-83
2023/01/24 03:36:52;;;;;;;31.50;20.20;;;;;;;1.12;97.21;103737.41;4937973;29;20111;-84
2023/01/24 03:42:01;;;;;;;31.67;20.45;;;;;;;1.10;97.70;103733.97;4938472;29;20046;-84
2023/01/24 03:44:27;;;;;;;32.25;20.70;;;;;;;1.01;97.45;103723.56;4937989;29;20031;-84
2023/01/24 03:46:52;;;;;;;31.35;19.85;;;;;;;1.31;98.01;103759.91;4937974;29;20122;-84
2023/01/24 03:49:17;;;;;;;31.42;20.27;;;;;;;1.43;97.68;103784.75;4936557;29;20036;-84
2023/01/24 03:54:50;;;;;;;31.58;19.00;;;;;;;0.40;97.29;103620.41;4937903;29;20177;-84
2023/01/24 03:57:47;;;;;;;;;;;;;;;1.38;97.70;103789.78;4938092;29;20034;-84
2023/01/24 04:00:53;;;;;;;32.40;20.35;;;;;;;1.38;97.82;103787.22;4933651;29;19911;-84
2023/01/24 04:03:21;;;;;;;31.83;19.05;;;;;;;0.80;96.99;103694.25;4937669;29;20391;-85
2023/01/24 04:05:56;;;;;;;31.40;20.50;;;;;;;0.04;97.34;103569.53;4937576;29;20063;-84
2023/01/24 04:08:21;;;;;;;32.80;19.67;;;;;;;0.71;97.13;103683.00;4937679;29;20036;-84
2023/01/24 04:10:50;;;;;;;30.90;20.02;;;;;;;-0.03;97.47;103563.44;4938107;29;20031;-84
2023/01/24 04:13:38;;;;;;;29.30;19.75;;;;;;;1.26;97.94;103776.72;4936449;29;20031;-85
2023/01/24 04:16:36;;;;;;;32.42;20.42;;;;;;;1.25;98.06;103780.09;4936313;29;20027;-82
2023/01/24 04:19:04;;;;;;;30.58;19.50;;;;;;;-0.13;98.23;103554.72;4937200;29;20032;-84
2023/01/24 04:21:30;;;;;;;28.85;17.38;;;;;;;0.20;98.21;103599.59;4937442;29;20384;-84
2023/01/24 04:24:08;;;;;;;28.92;18.40;;;;;;;0.91;98.26;103730.13;4937382;29;20027;-84
2023/01/24 04:26:33;;;;;;;29.38;19.13;;;;;;;1.15;98.02;103775.63;4937537;29;20480;-84
2023/01/24 04:28:58;;;;;;;31.23;19.98;;;;;;;1.12;97.68;103775.56;4937481;29;20029;-84
2023/01/24 04:31:42;;;;;;;30.85;19.83;;;;;;;0.25;98.33;103625.97;4936780;29;20028;-84
2023/01/24 04:34:08;;;;;;;29.13;18.02;;;;;;;-0.31;97.55;103532.25;4936827;29;20087;-83
2023/01/24 04:36:51;;;;;;;31.05;18.63;;;;;;;0.47;98.08;103685.81;4937051;29;20035;-84
2023/01/24 04:39:17;;;;;;;29.20;18.02;;;;;;;-0.15;97.75;103583.44;4936035;29;20038;-82
2023/01/24 04:41:44;;;;;;;28.73;18.92;;;;;;;0.14;97.78;103629.91;4937089;29;20287;-84
2023/01/24 04:44:25;;;;;;;29.25;17.45;;;;;;;-0.14;97.94;103583.47;4936808;29;20103;-84
2023/01/24 04:46:57;;;;;;;29.17;18.30;;;;;;;-0.23;98.58;103569.69;4936792;29;20035;-84
2023/01/24 04:49:22;;;;;;;29.75;19.02;;;;;;;0.17;98.58;103642.69;4935587;29;20020;-84
2023/01/24 04:51:49;;;;;;;29.25;19.13;;;;;;;0.25;98.32;103656.44;4937024;29;20407;-84
2023/01/24 04:54:15;;;;;;;31.20;18.60;;;;;;;0.81;98.93;103743.44;4936831;29;20035;-84
2023/01/24 04:56:52;;;;;;;29.75;18.58;;;;;;;0.72;99.06;103727.97;4936553;29;20031;-84
2023/01/24 04:59:18;;;;;;;27.60;17.90;;;;;;;-0.25;98.71;103566.25;4936680;29;20476;-84
2023/01/24 05:01:43;;;;;;;28.77;17.85;;;;;;;0.09;98.36;103619.63;4935439;29;20059;-83
2023/01/24 05:04:08;;;;;;;26.45;17.13;;;;;;;0.93;98.62;103765.78;5023634;23;20056;-83
2023/01/24 05:06:36;;;;;;;29.95;18.05;;;;;;;1.10;99.11;103789.94;4936688;29;20373;-84
2023/01/24 05:11:37;;;;;;;26.77;17.60;;;;;;;0.91;98.76;103764.88;5116312;23;20059;-85
2023/01/24 05:14:03;;;;;;;30.40;18.48;;;;;;;0.97;99.74;103770.97;4935341;29;20031;-84
2023/01/24 05:16:28;;;;;;;27.27;17.67;;;;;;;0.92;99.78;103767.47;4936412;29;20128;-85
2023/01/24 05:18:54;;;;;;;30.77;19.15;;;;;;;0.97;99.78;103772.66;4935028;29;20059;-84
2023/01/24 05:21:19;;;;;;;32.63;19.67;;;;;;;0.93;99.85;103770.88;4936217;29;20033;-85
2023/01/24 05:23:50;;;;;;;28.88;18.42;;;;;;;1.02;99.51;103789.75;4936293;29;20079;-85
2023/01/24 05:26:15;;;;;;;30.67;19.10;;;;;;;1.00;99.82;103793.09;4936195;29;20059;-84
2023/01/24 05:28:43;;;;;;;29.45;18.27;;;;;;;1.12;100.00;103803.56;4936166;29;20042;-84
2023/01/24 05:31:08;;;;;;;29.58;18.20;;;;;;;0.95;100.00;103781.94;4934933;29;20031;-85
2023/01/24 05:33:35;;;;;;;29.42;18.45;;;;;;;1.02;99.64;103796.53;4936136;29;20032;-85
2023/01/24 05:36:03;;;;;;;30.10;18.98;;;;;;;0.80;99.34;103759.53;4936003;29;20019;-84
2023/01/24 05:38:29;;;;;;;30.70;18.77;;;;;;;1.04;99.20;103807.59;4935890;29;20028;-85
2023/01/24 05:40:59;;;;;;;30.67;18.88;;;;;;;0.93;99.63;103791.22;4935788;29;20500;-84
2023/01/24 05:43:24;;;;;;;30.98;18.63;;;;;;;0.74;99.80;103761.91;4935906;29;20487;-84
2023/01/24 05:45:49;;;;;;;28.05;18.55;;;;;;;0.76;99.87;103765.34;4935764;29;20499;-85
2023/01/24 05:48:17;;;;;;;32.17;19.17;;;;;;;0.90;100.00;103786.06;4935711;29;20039;-82
2023/01/24 05:50:46;;;;;;;31.27;19.77;;;;;;;0.73;99.97;103765.28;4933933;29;20406;-83
2023/01/24 05:53:11;;;;;;;29.27;19.60;;;;;;;0.77;100.00;103777.25;4935737;29;20504;-85
2023/01/24 05:55:39;;;;;;;30.73;20.00;;;;;;;0.68;100.00;103762.63;4935715;29;20030;-85
2023/01/24 05:58:05;;;;;;;31.35;19.80;;;;;;;1.03;99.92;103832.19;4934596;29;20114;-84
2023/01/24 06:08:16;;;;;;;31.75;20.23;;;;;;;0.94;100.00;103844.69;5171447;23;20055;-83
2023/01/24 06:10:42;;;;;;;30.88;19.17;;;;;;;0.68;100.00;103790.59;4935266;29;20035;-84
2023/01/24 06:13:08;;;;;;;31.95;19.88;;;;;;;0.92;100.00;103842.94;4935351;29;20027;-84
2023/01/24 06:15:34;;;;;;;33.40;20.10;;;;;;;0.98;100.00;103841.38;4934820;29;20431;-84
2023/01/24 06:17:59;;;;;;;34.78;21.67;;;;;;;0.96;100.00;103840.47;4935563;29;20019;-84
2023/01/24 06:20:25;;;;;;;37.67;21.73;;;;;;;0.98;100.00;103837.97;4935449;29;20162;-84
2023/01/24 06:22:59;;;;;;;32.35;20.80;;;;;;;0.91;100.00;103833.56;4947886;29;20031;-84
2023/01/24 06:25:27;;;;;;;32.20;19.95;;;;;;;0.92;99.69;103845.47;4954639;28;20043;-84
2023/01/24 06:27:53;;;;;;;31.48;19.95;;;;;;;0.10;100.00;103717.03;4954171;28;20074;-84
2023/01/24 06:30:20;;;;;;;31.92;20.17;;;;;;;0.54;100.00;103785.16;4954521;29;20034;-84
2023/01/24 06:33:16;;;;;;;34.17;21.23;;;;;;;0.38;100.00;103754.19;4954600;28;20480;-84
2023/01/24 06:36:09;;;;;;;33.08;20.73;;;;;;;0.92;100.00;103856.50;4954603;28;20027;-83
2023/01/24 06:38:35;;;;;;;33.25;20.40;;;;;;;0.29;100.00;103744.66;4954610;28;20484;-84
2023/01/24 06:41:01;;;;;;;34.40;21.58;;;;;;;0.92;100.00;103853.97;4954405;28;20082;-84
2023/01/24 06:43:27;;;;;;;33.10;20.27;;;;;;;0.81;100.00;103842.66;4954456;28;20028;-84
2023/01/24 06:45:52;;;;;;;34.25;21.20;;;;;;;0.72;100.00;103832.25;4954246;28;20042;-83
2023/01/24 06:48:18;;;;;;;37.28;22.00;;;;;;;0.92;100.00;103860.75;4953057;29;20066;-85
2023/01/24 06:50:44;;;;;;;37.17;22.65;;;;;;;0.68;100.00;103821.09;4954554;28;20042;-84
2023/01/24 06:53:14;;;;;;;32.90;21.25;;;;;;;0.88;100.00;103858.91;4953920;28;20054;-84
2023/01/24 06:55:43;;;;;;;35.42;22.02;;;;;;;0.66;100.00;103815.13;4954503;28;20028;-85
2023/01/24 06:58:08;;;;;;;34.25;21.15;;;;;;;0.88;100.00;103851.28;4954478;28;20073;-84
2023/01/24 07:00:34;;;;;;;35.00;21.65;;;;;;;0.86;100.00;103861.44;4954361;28;20058;-84
2023/01/24 07:03:06;;;;;;;35.58;22.30;;;;;;;0.86;100.00;103858.88;4956212;28;20069;-84
2023/01/24 07:05:32;;;;;;;33.92;21.85;;;;;;;0.61;100.00;103826.88;4958023;28;20054;-84
2023/01/24 07:07:58;;;;;;;36.45;22.52;;;;;;;0.53;100.00;103818.19;4956393;29;20047;-83
2023/01/24 07:10:24;;;;;;;35.70;22.02;;;;;;;0.78;100.00;103866.31;4957879;28;20187;-84
2023/01/24 07:12:49;;;;;;;36.42;21.98;;;;;;;0.46;100.00;103814.59;4958180;28;20042;-84
2023/01/24 07:15:15;;;;;;;35.38;22.33;;;;;;;0.50;100.00;103818.09;4957868;28;20094;-84
2023/01/24 07:17:41;;;;;;;36.03;22.48;;;;;;;-0.01;100.00;103745.53;4957900;28;20391;-84
2023/01/24 07:20:07;;;;;;;34.45;21.50;;;;;;;0.41;100.00;103821.25;4957578;28;20028;-84
2023/01/24 07:25:34;;;;;;;33.97;21.65;;;;;;;0.54;100.00;103858.91;4943423;23;20067;-85
2023/01/24 07:28:12;;;;;;;37.05;22.58;;;;;;;-0.09;100.00;103759.72;4937265;29;20134;-85
2023/01/24 07:30:55;;;;;;;35.40;21.67;;;;;;;-0.05;100.00;103773.38;4917333;29;20044;-87
2023/01/24 07:33:21;;;;;;;37.05;22.65;;;;;;;-0.55;100.00;103677.97;4917339;29;20055;-83
2023/01/24 07:35:55;;;;;;;37.53;22.30;;;;;;;-0.68;100.00;103651.41;4917130;29;20504;-82
2023/01/24 07:38:39;;;;;;;36.17;22.67;;;;;;;0.22;100.00;103799.56;4916913;29;20036;-83
2023/01/24 07:41:45;;;;;;;34.50;21.90;;;;;;;-0.30;100.00;103716.78;4917150;29;20084;-82
2023/01/24 07:44:13;;;;;;;35.85;22.05;;;;;;;-0.55;100.00;103665.28;4860167;29;20045;-81
2023/01/24 07:46:44;;;;;;;36.50;21.88;;;;;;;-0.25;100.00;103714.41;4861018;29;20053;-82
2023/01/24 07:49:27;;;;;;;33.72;21.55;;;;;;;-0.30;100.00;103709.16;4860791;29;20052;-84
2023/01/24 07:51:53;;;;;;;39.05;23.60;;;;;;;-0.10;100.00;103734.25;4860778;29;20038;-84
2023/01/24 07:56:53;;;;;;;34.90;22.13;;;;;;;0.11;100.00;103790.78;5190251;23;20420;-85
2023/01/24 07:59:18;;;;;;;34.78;22.30;;;;;;;0.05;100.00;103780.44;4936727;29;20031;-85
2023/01/24 08:04:43;;;;;;;37.88;22.27;;;;;;;0.88;100.00;103919.97;4891117;29;20059;-84
2023/01/24 08:10:13;;;;;;;38.47;23.02;;;;;;;-0.42;100.00;103710.50;4918667;29;20507;-83
2023/01/24 08:12:38;;;;;;;38.00;22.52;;;;;;;0.35;100.00;103823.63;4930663;23;20118;-83
2023/01/24 08:15:35;;;;;;;37.92;23.48;;;;;;;0.10;100.00;103783.09;4937944;29;20091;-85
2023/01/24 08:18:04;;;;;;;36.75;22.73;;;;;;;0.91;100.00;103920.06;4937817;29;20027;-84
2023/01/24 08:20:37;;;;;;;36.80;21.58;;;;;;;-0.47;100.00;103682.47;4936445;29;20476;-85
2023/01/24 08:23:12;;;;;;;34.05;21.55;;;;;;;0.92;100.00;103916.72;4938004;29;20028;-85
2023/01/24 08:25:43;;;;;;;36.47;22.30;;;;;;;-0.31;100.00;103712.53;4936601;29;20066;-84
2023/01/24 08:28:35;;;;;;;;;;;;;;;0.98;100.00;103922.81;4938234;29;20224;-83
2023/01/24 08:31:11;;;;;;;34.92;21.17;;;;;;;0.18;100.00;103799.41;4937655;29;20274;-79
2023/01/24 08:33:47;;;;;;;;;;;;;;;;;;;;;
2023/01/24 08:36:13;;;;;;;38.30;21.95;;;;;;;-0.43;100.00;103713.88;4956055;29;20038;-81
2023/01/24 08:38:38;;;;;;;37.25;23.00;;;;;;;0.86;100.00;103928.44;4956533;28;20106;-82
2023/01/24 08:41:05;;;;;;;37.42;22.05;;;;;;;0.80;99.71;103935.91;4956452;28;20098;-83
2023/01/24 08:43:36;;;;;;;34.63;21.45;;;;;;;0.79;100.00;103939.28;4956165;28;20430;-82
2023/01/24 08:46:48;;;;;;;36.75;21.70;;;;;;;0.77;99.69;103948.53;4956169;28;20471;-82
2023/01/24 08:49:38;;;;;;;36.00;21.15;;;;;;;0.75;100.00;103949.31;4955950;29;20027;-83
2023/01/24 08:52:12;;;;;;;34.92;21.20;;;;;;;-0.46;100.00;103737.50;4937371;29;20035;-81
2023/01/24 08:55:09;;;;;;;36.08;20.73;;;;;;;-0.53;100.00;103722.88;4955842;28;20027;-83
2023/01/24 08:57:34;;;;;;;36.63;21.02;;;;;;;-0.35;99.38;103745.41;4924909;29;20403;-83
2023/01/24 09:00:00;;;;;;;39.05;21.38;;;;;;;-0.45;98.94;103730.75;4955806;28;20089;-80
2023/01/24 09:02:38;;;;;;;37.53;22.25;;;;;;;-0.55;99.53;103721.13;4954320;29;20554;-82
2023/01/24 09:05:07;;;;;;;37.30;21.45;;;;;;;0.72;100.00;103928.88;4956119;28;20035;-83
2023/01/24 09:11:24;;;;;;;35.55;20.67;;;;;;;0.96;100.00;103959.22;4956147;29;20038;-85
2023/01/24 09:13:56;;;;;;;33.75;18.90;;;;;;;-0.35;99.74;103713.28;4952935;29;20083;-84
2023/01/24 09:16:27;;;;;;;36.75;21.27;;;;;;;0.62;99.03;103886.22;4955698;28;20387;-85
2023/01/24 09:18:58;;;;;;;35.30;19.90;;;;;;;-0.27;98.88;103731.28;4955494;28;20102;-82
2023/01/24 09:21:44;;;;;;;38.20;20.65;;;;;;;-0.23;98.54;103749.97;4955760;28;20027;-82
2023/01/24 09:24:34;;;;;;;34.33;20.00;;;;;;;1.06;98.67;103964.59;4955029;28;20058;-83
2023/01/24 09:27:00;;;;;;;34.05;19.95;;;;;;;0.50;98.97;103886.75;4951140;29;20035;-78
2023/01/24 09:29:25;;;;;;;33.33;20.63;;;;;;;0.21;99.43;103804.59;4936388;29;20035;-81
2023/01/24 09:31:54;;;;;;;38.45;21.10;;;;;;;0.90;98.94;103926.00;4936132;29;20039;-82
2023/01/24 09:34:20;;;;;;;32.42;20.55;;;;;;;1.21;99.03;103961.59;4936309;29;20038;-82
2023/01/24 09:36:47;;;;;;;32.45;19.88;;;;;;;1.21;98.60;103950.56;4936184;29;20036;-82
2023/01/24 09:39:12;;;;;;;37.42;21.60;;;;;;;1.31;98.05;103955.06;4936222;29;20027;-83
2023/01/24 09:41:43;;;;;;;35.35;20.95;;;;;;;1.30;98.04;103960.97;4936086;29;20539;-81
2023/01/24 09:44:46;;;;;;;30.58;19.33;;;;;;;1.32;97.97;103964.44;4935824;29;20094;-82
2023/01/24 09:48:05;;;;;;;34.75;20.92;;;;;;;1.35;98.11;103970.44;4914627;29;20513;-82
2023/01/24 09:50:45;;;;;;;35.00;19.90;;;;;;;1.38;98.66;103974.78;4858783;29;20052;-83
2023/01/24 09:53:29;;;;;;;34.60;20.33;;;;;;;1.44;97.87;103969.81;4858513;29;20429;-82
2023/01/24 09:55:55;;;;;;;34.90;20.25;;;;;;;1.41;97.13;103974.84;4858184;29;20037;-83
2023/01/24 09:58:34;;;;;;;32.15;20.77;;;;;;;1.42;97.23;103969.78;4858537;29;20033;-83
2023/01/24 10:01:14;;;;;;;33.97;19.70;;;;;;;1.21;96.77;103943.78;4858792;29;20109;-83
2023/01/24 10:03:40;;;;;;;33.45;18.85;;;;;;;1.40;96.81;103974.00;4858603;29;20025;-83
2023/01/24 10:06:17;;;;;;;35.00;21.75;;;;;;;1.25;97.22;103953.22;4858796;29;20046;-83
2023/01/24 10:08:57;;;;;;;36.05;20.05;;;;;;;1.44;97.13;103980.00;4858483;29;20037;-83
2023/01/24 10:11:31;;;;;;;33.03;19.92;;;;;;;1.38;96.60;103978.19;4858464;29;20037;-83
2023/01/24 10:14:10;;;;;;;34.05;19.38;;;;;;;1.36;97.06;103977.25;4858361;29;20462;-82
2023/01/24 10:16:38;;;;;;;31.77;18.85;;;;;;;1.37;97.23;103978.13;4858573;29;20033;-82
2023/01/24 10:19:06;;;;;;;31.70;18.17;;;;;;;1.41;96.43;103972.31;4858267;29;20037;-81
2023/01/24 10:22:02;;;;;;;31.92;19.20;;;;;;;1.40;96.67;103976.53;4858455;29;20041;-82
2023/01/24 10:24:34;;;;;;;32.03;18.25;;;;;;;1.41;96.28;103980.81;4908054;29;20079;-82
2023/01/24 10:27:00;;;;;;;;;;;;;;;1.48;97.03;103991.16;4954974;28;20506;-81
2023/01/24 10:29:37;;;;;;;31.33;18.45;;;;;;;1.34;96.92;103962.78;4954850;28;20293;-84
2023/01/24 10:32:09;;;;;;;31.75;19.52;;;;;;;1.54;96.36;103988.75;4954563;28;20031;-83
2023/01/24 10:34:44;;;;;;;30.92;18.40;;;;;;;1.48;96.21;103964.00;4953404;28;20031;-82
2023/01/24 10:37:09;;;;;;;32.65;18.05;;;;;;;1.49;95.36;103980.13;4956765;28;20460;-83
2023/01/24 10:39:35;;;;;;;31.00;18.45;;;;;;;1.42;95.06;103972.34;4953683;29;20086;-81
2023/01/24 10:42:26;;;;;;;32.45;19.10;;;;;;;1.26;95.19;103960.03;4939430;29;20094;-82
2023/01/24 10:44:54;;;;;;;30.70;18.48;;;;;;;1.39;95.57;103979.03;4939100;29;20028;-84
2023/01/24 10:47:43;;;;;;;29.45;17.98;;;;;;;1.40;95.56;103975.66;4939148;29;20357;-82
2023/01/24 10:50:12;;;;;;;30.48;16.88;;;;;;;1.13;94.77;103933.41;4939240;29;20027;-83
2023/01/24 10:52:40;;;;;;;28.48;17.27;;;;;;;1.04;94.47;103927.19;4939437;29;20384;-84
2023/01/24 10:55:30;;;;;;;30.17;17.65;;;;;;;1.32;94.98;103975.47;4939148;29;20025;-84
2023/01/24 10:58:01;;;;;;;27.42;16.85;;;;;;;1.25;95.03;103977.81;4939071;29;20079;-83
2023/01/24 11:00:54;;;;;;;30.65;17.30;;;;;;;0.66;94.36;103870.22;4938938;29;20103;-82
2023/01/24 11:03:40;;;;;;;27.55;16.55;;;;;;;0.68;95.15;103882.16;4938968;29;20024;-82
2023/01/24 11:06:21;;;;;;;30.45;18.55;;;;;;;1.29;95.57;103972.84;4938973;29;20020;-82
2023/01/24 11:08:54;;;;;;;27.13;17.05;;;;;;;1.33;94.39;103966.16;4938960;29;20044;-81
2023/01/24 11:11:29;;;;;;;29.83;18.20;;;;;;;1.31;95.02;103968.66;4938607;29;20475;-82
2023/01/24 11:14:01;;;;;;;29.63;17.90;;;;;;;1.07;94.46;103917.97;4938900;29;20138;-83
2023/01/24 11:16:33;;;;;;;29.10;17.55;;;;;;;1.33;94.38;103961.91;4938799;29;20456;-85
2023/01/24 11:19:27;;;;;;;29.92;18.10;;;;;;;1.07;94.58;103906.91;4938487;29;20110;-83
2023/01/24 11:21:56;;;;;;;31.52;17.90;;;;;;;1.44;93.60;103955.41;4938864;29;20027;-85
2023/01/24 11:24:44;;;;;;;25.45;15.48;;;;;;;1.36;93.03;103949.25;4938681;29;20071;-84
2023/01/24 11:27:21;;;;;;;26.08;15.40;;;;;;;0.88;93.10;103876.72;4938167;29;20035;-85
2023/01/24 11:30:36;;;;;;;28.50;15.80;;;;;;;0.28;94.01;103781.91;4938589;29;20537;-86
2023/01/24 11:33:45;;;;;;;27.58;15.38;;;;;;;1.41;93.89;103954.47;4938659;29;20081;-84
2023/01/24 11:36:54;;;;;;;26.80;16.58;;;;;;;0.39;93.86;103756.78;4938363;29;20492;-85
2023/01/24 11:43:06;;;;;;;29.08;17.52;;;;;;;1.57;93.28;103931.09;4909037;29;20099;-85
2023/01/24 11:46:14;;;;;;;26.58;16.23;;;;;;;1.64;92.71;103930.41;4907361;29;20048;-84
2023/01/24 11:49:24;;;;;;;28.52;17.23;;;;;;;0.38;91.67;103723.69;4916700;29;20433;-85
2023/01/24 11:54:54;;;;;;;29.58;16.52;;;;;;;1.52;92.25;103927.59;4936755;29;20047;-85
2023/01/24 12:01:29;;;;;;;27.00;16.33;;;;;;;1.38;92.15;103904.34;4898428;29;20048;-87
2023/01/24 12:04:21;;;;;;;28.63;16.55;;;;;;;1.53;91.64;103916.56;4919130;29;20488;-85
2023/01/24 12:06:56;;;;;;;25.73;16.42;;;;;;;1.54;92.25;103907.25;4938107;29;20035;-85
2023/01/24 12:09:30;;;;;;;29.00;19.17;;;;;;;1.50;91.88;103911.41;4937707;29;20024;-83
2023/01/24 12:11:56;;;;;;;26.05;15.57;;;;;;;1.49;92.00;103902.06;4937630;29;20085;-84
2023/01/24 12:14:59;;;;;;;27.10;16.88;;;;;;;1.52;92.63;103897.03;4938064;29;20040;-83
2023/01/24 12:18:01;;;;;;;28.48;16.95;;;;;;;1.31;92.23;103843.91;4937731;29;20032;-82
2023/01/24 12:20:43;;;;;;;26.05;16.02;;;;;;;1.70;93.10;103883.88;4937411;29;20114;-81
2023/01/24 12:23:23;;;;;;;28.05;16.75;;;;;;;1.73;92.69;103863.53;4937764;29;20031;-82
2023/01/24 12:25:54;;;;;;;26.42;16.13;;;;;;;1.84;91.49;103889.25;4937236;29;20032;-83
2023/01/24 12:28:39;;;;;;;27.42;17.17;;;;;;;1.73;91.33;103869.50;4937671;29;20020;-87
2023/01/24 12:31:06;;;;;;;25.80;16.35;;;;;;;1.89;91.71;103880.91;4937189;29;20028;-83
2023/01/24 12:33:33;;;;;;;27.08;16.23;;;;;;;1.99;92.00;103880.28;4937846;29;20027;-85
2023/01/24 12:36:05;;;;;;;26.67;15.65;;;;;;;1.82;90.08;103845.06;4937537;29;20106;-83
2023/01/24 12:39:02;;;;;;;25.33;16.17;;;;;;;1.97;90.38;103881.06;4937378;29;20035;-84
2023/01/24 12:41:35;;;;;;;22.48;14.30;;;;;;;1.57;89.34;103829.22;4897111;29;20073;-84
2023/01/24 12:44:18;;;;;;;25.25;15.23;;;;;;;1.91;90.17;103878.38;4881167;29;20516;-84
2023/01/24 12:47:01;;;;;;;25.33;15.20;;;;;;;1.87;89.67;103876.56;4897541;29;20047;-81
2023/01/24 12:49:38;;;;;;;25.35;15.73;;;;;;;1.75;90.03;103872.06;4897255;29;20051;-81
2023/01/24 12:52:26;;;;;;;23.42;14.88;;;;;;;1.33;89.89;103811.69;4897372;29;20044;-84
2023/01/24 12:55:16;;;;;;;24.65;15.88;;;;;;;1.66;90.28;103865.09;4881064;29;20493;-83
2023/01/24 12:57:53;;;;;;;25.15;15.25;;;;;;;1.58;90.94;103850.47;4896644;29;20060;-83
2023/01/24 13:03:35;;;;;;;23.73;14.93;;;;;;;1.72;90.44;103855.03;4896457;29;20040;-83
2023/01/24 13:06:32;;;;;;;24.08;15.55;;;;;;;1.35;91.11;103796.47;4896647;29;20096;-85
2023/01/24 13:09:23;;;;;;;23.35;15.15;;;;;;;1.69;90.58;103860.06;4896681;29;20124;-84
2023/01/24 13:11:52;;;;;;;25.02;16.05;;;;;;;1.65;90.02;103853.19;4880688;29;20043;-84
2023/01/24 13:14:25;;;;;;;25.02;15.52;;;;;;;1.60;90.18;103853.91;4896764;29;20454;-84
2023/01/24 13:17:18;;;;;;;26.50;16.27;;;;;;;1.58;91.32;103848.78;4899650;28;20123;-83
2023/01/24 13:20:14;;;;;;;24.08;15.35;;;;;;;1.58;90.15;103847.94;4936216;29;20028;-83
2023/01/24 13:23:04;;;;;;;25.73;15.40;;;;;;;1.55;91.19;103847.84;4936476;29;20033;-80
2023/01/24 13:25:35;;;;;;;26.27;16.33;;;;;;;1.51;91.36;103852.00;4935129;29;20046;-80
2023/01/24 13:28:12;;;;;;;25.52;16.98;;;;;;;1.57;91.89;103857.22;4936480;29;20042;-85
2023/01/24 13:30:44;;;;;;;26.55;15.90;;;;;;;1.59;91.63;103849.66;4936563;29;20023;-84
2023/01/24 13:33:17;;;;;;;27.52;16.95;;;;;;;1.60;91.93;103852.22;4936304;29;20035;-88